Time,TemperatureF,DewpointF,PressureIn,WindDirection,WindDirectionDegrees,WindSpeedMPH,WindSpeedGustMPH,Humidity,HourlyPrecipIn,Conditions,Clouds,dailyrainin,SoftwareType,DateUTC
2013-10-01 00:05:00,48.1,45.3,29.94,East,96,2.0,2.0,90,0.00,,,0.34,Wunderground v.1.15,2013-10-01 07:05:00,
2013-10-01 00:10:00,48.0,45.5,29.94,East,84,2.0,2.0,91,0.00,,,0.00,Wunderground v.1.15,2013-10-01 07:10:00,
2013-10-01 00:15:00,48.0,45.5,29.94,East,93,1.0,2.0,91,0.00,,,0.00,Wunderground v.1.15,2013-10-01 07:15:00,
2013-10-01 00:20:00,48.0,45.5,29.94,East,98,1.0,1.0,91,0.00,,,0.00,Wunderground v.1.15,2013-10-01 07:20:00,
2013-10-01 00:25:00,47.9,45.4,29.94,East,91,1.0,1.0,91,0.00,,,0.00,Wunderground v.1.15,2013-10-01 07:25:00,
2013-10-01 00:30:00,47.9,45.4,29.94,ESE,105,2.0,2.0,91,0.00,,,0.00,Wunderground v.1.15,2013-10-01 07:30:00,
2013-10-01 00:40:00,48.0,45.5,29.95,ESE,102,2.0,3.0,91,0.00,,,0.00,Wunderground v.1.15,2013-10-01 07:40:00,
2013-10-01 00:45:00,48.1,45.6,29.95,ESE,105,2.0,3.0,91,0.00,,,0.00,Wunderground v.1.15,2013-10-01 07:45:00,
2013-10-01 00:50:00,48.2,46.0,29.95,ESE,103,1.0,1.0,92,0.00,,,0.00,Wunderground v.1.15,2013-10-01 07:50:00,
2013-10-01 00:55:00,48.4,45.9,29.95,East,98,1.0,1.0,91,0.00,,,0.01,Wunderground v.1.15,2013-10-01 07:55:00,
2013-10-01 01:05:00,48.5,46.0,29.96,ESE,109,1.0,2.0,91,0.00,,,0.01,Wunderground v.1.15,2013-10-01 08:05:00,
2013-10-01 01:10:00,48.4,46.2,29.96,East,90,1.0,1.0,92,0.00,,,0.01,Wunderground v.1.15,2013-10-01 08:10:00,
2013-10-01 01:15:00,48.3,46.1,29.96,East,86,2.0,2.0,92,0.00,,,0.01,Wunderground v.1.15,2013-10-01 08:15:00,
2013-10-01 01:20:00,48.2,46.0,29.96,East,86,1.0,1.0,92,0.00,,,0.01,Wunderground v.1.15,2013-10-01 08:20:00,
2013-10-01 01:25:00,48.2,46.0,29.96,East,86,1.0,1.0,92,0.00,,,0.01,Wunderground v.1.15,2013-10-01 08:25:00,
2013-10-01 01:30:00,48.1,45.9,29.96,East,86,0.0,0.0,92,0.00,,,0.01,Wunderground v.1.15,2013-10-01 08:30:00,
2013-10-01 01:35:00,48.2,46.0,29.96,East,86,0.0,0.0,92,0.00,,,0.01,Wunderground v.1.15,2013-10-01 08:35:00,
2013-10-01 01:40:00,48.1,45.9,29.96,East,86,0.0,0.0,92,0.00,,,0.01,Wunderground v.1.15,2013-10-01 08:40:00,
2013-10-01 01:50:00,48.1,45.9,29.96,East,86,1.0,1.0,92,0.00,,,0.01,Wunderground v.1.15,2013-10-01 08:50:00,
2013-10-01 01:55:00,48.2,46.0,29.96,East,86,0.0,1.0,92,0.00,,,0.01,Wunderground v.1.15,2013-10-01 08:55:00,
2013-10-01 02:00:00,48.3,46.4,29.96,East,86,0.0,0.0,93,0.00,,,0.01,Wunderground v.1.15,2013-10-01 09:00:00,
2013-10-01 02:05:00,48.3,46.4,29.96,East,86,0.0,0.0,93,0.00,,,0.01,Wunderground v.1.15,2013-10-01 09:05:00,
2013-10-01 02:10:00,48.4,46.5,29.96,East,86,0.0,0.0,93,0.00,,,0.01,Wunderground v.1.15,2013-10-01 09:10:00,
2013-10-01 02:15:00,48.5,46.6,29.97,SSE,163,1.0,5.0,93,0.00,,,0.01,Wunderground v.1.15,2013-10-01 09:15:00,
2013-10-01 02:20:00,48.5,46.6,29.97,South,191,3.0,3.0,93,0.00,,,0.02,Wunderground v.1.15,2013-10-01 09:20:00,
2013-10-01 02:25:00,48.3,46.4,29.97,ESE,106,3.0,3.0,93,0.23,,,0.04,Wunderground v.1.15,2013-10-01 09:25:00,
2013-10-01 02:35:00,47.9,46.0,29.95,ENE,75,1.0,3.0,93,0.16,,,0.07,Wunderground v.1.15,2013-10-01 09:35:00,
2013-10-01 02:40:00,47.7,46.1,29.96,ENE,76,2.0,2.0,94,0.09,,,0.07,Wunderground v.1.15,2013-10-01 09:40:00,
2013-10-01 02:45:00,47.7,46.1,29.95,ENE,76,1.0,2.0,94,0.06,,,0.07,Wunderground v.1.15,2013-10-01 09:45:00,
2013-10-01 02:50:00,47.9,46.5,29.96,SSE,149,1.0,3.0,95,0.04,,,0.07,Wunderground v.1.15,2013-10-01 09:50:00,
2013-10-01 03:00:00,47.9,46.3,29.95,ESE,102,2.0,3.0,94,0.00,,,0.08,Wunderground v.1.15,2013-10-01 10:00:00,
2013-10-01 03:10:00,47.5,45.9,29.95,ESE,102,1.0,1.0,94,0.00,,,0.08,Wunderground v.1.15,2013-10-01 10:10:00,
2013-10-01 03:15:00,47.4,46.0,29.95,ESE,102,1.0,1.0,95,0.00,,,0.08,Wunderground v.1.15,2013-10-01 10:15:00,
2013-10-01 03:20:00,47.3,45.9,29.95,ESE,102,1.0,1.0,95,0.00,,,0.08,Wunderground v.1.15,2013-10-01 10:20:00,
2013-10-01 03:25:00,47.2,45.8,29.94,ESE,102,0.0,1.0,95,0.00,,,0.08,Wunderground v.1.15,2013-10-01 10:25:00,
2013-10-01 03:30:00,47.4,46.0,29.95,SE,133,1.0,4.0,95,0.00,,,0.08,Wunderground v.1.15,2013-10-01 10:30:00,
2013-10-01 03:35:00,47.5,46.1,29.95,ESE,120,2.0,4.0,95,0.00,,,0.08,Wunderground v.1.15,2013-10-01 10:35:00,
2013-10-01 03:40:00,47.9,46.5,29.95,SE,142,3.0,8.0,95,0.00,,,0.08,Wunderground v.1.15,2013-10-01 10:40:00,
2013-10-01 03:50:00,48.4,46.8,29.95,SE,126,3.0,3.0,94,0.00,,,0.08,Wunderground v.1.15,2013-10-01 10:50:00,
2013-10-01 03:55:00,48.3,46.4,29.95,SE,126,2.0,3.0,93,0.00,,,0.08,Wunderground v.1.15,2013-10-01 10:55:00,
2013-10-01 04:00:00,48.3,46.4,29.95,SE,127,2.0,3.0,93,0.00,,,0.08,Wunderground v.1.15,2013-10-01 11:00:00,
2013-10-01 04:05:00,48.4,46.5,29.95,SE,128,3.0,3.0,93,0.00,,,0.08,Wunderground v.1.15,2013-10-01 11:05:00,
2013-10-01 04:10:00,48.3,46.4,29.95,SE,126,2.0,7.0,93,0.00,,,0.08,Wunderground v.1.15,2013-10-01 11:10:00,
2013-10-01 04:15:00,48.5,46.6,29.95,SE,130,3.0,7.0,93,0.00,,,0.08,Wunderground v.1.15,2013-10-01 11:15:00,
2013-10-01 04:20:00,48.4,46.2,29.95,East,97,2.0,2.0,92,0.00,,,0.09,Wunderground v.1.15,2013-10-01 11:20:00,
2013-10-01 04:25:00,48.1,46.2,29.95,East,97,1.0,2.0,93,0.00,,,0.09,Wunderground v.1.15,2013-10-01 11:25:00,
2013-10-01 04:30:00,47.9,46.0,29.94,East,95,2.0,2.0,93,0.00,,,0.09,Wunderground v.1.15,2013-10-01 11:30:00,
2013-10-01 04:35:00,47.8,45.9,29.94,East,90,2.0,5.0,93,0.00,,,0.09,Wunderground v.1.15,2013-10-01 11:35:00,
2013-10-01 04:40:00,47.7,46.1,29.94,East,84,1.0,1.0,94,0.00,,,0.09,Wunderground v.1.15,2013-10-01 11:40:00,
2013-10-01 04:45:00,47.6,46.0,29.94,East,83,1.0,5.0,94,0.00,,,0.09,Wunderground v.1.15,2013-10-01 11:45:00,
2013-10-01 04:50:00,47.4,45.8,29.94,East,83,1.0,1.0,94,0.00,,,0.09,Wunderground v.1.15,2013-10-01 11:50:00,
2013-10-01 04:55:00,47.3,45.7,29.94,ENE,74,2.0,8.0,94,0.00,,,0.09,Wunderground v.1.15,2013-10-01 11:55:00,
2013-10-01 05:00:00,47.2,45.6,29.94,East,86,3.0,3.0,94,0.00,,,0.09,Wunderground v.1.15,2013-10-01 12:00:00,
2013-10-01 05:05:00,47.3,45.7,29.94,East,93,2.0,3.0,94,0.00,,,0.09,Wunderground v.1.15,2013-10-01 12:05:00,
2013-10-01 05:09:00,47.3,45.7,29.94,East,86,2.0,2.0,94,0.00,,,0.09,Wunderground v.1.15,2013-10-01 12:09:00,
2013-10-01 05:15:00,47.5,45.9,29.94,SE,133,2.0,2.0,94,0.00,,,0.09,Wunderground v.1.15,2013-10-01 12:15:00,
2013-10-01 05:25:00,47.5,45.9,29.94,East,84,1.0,2.0,94,0.00,,,0.09,Wunderground v.1.15,2013-10-01 12:25:00,
2013-10-01 05:35:00,47.5,45.6,29.94,East,84,2.0,3.0,93,0.00,,,0.09,Wunderground v.1.15,2013-10-01 12:35:00,
2013-10-01 05:40:00,47.5,45.6,29.94,ESE,119,1.0,1.0,93,0.00,,,0.09,Wunderground v.1.15,2013-10-01 12:40:00,
2013-10-01 05:50:00,47.4,45.5,29.94,ENE,76,1.0,1.0,93,0.00,,,0.09,Wunderground v.1.15,2013-10-01 12:50:00,
2013-10-01 06:00:00,47.4,45.5,29.94,ESE,117,1.0,1.0,93,0.00,,,0.09,Wunderground v.1.15,2013-10-01 13:00:00,
2013-10-01 06:10:00,47.5,45.6,29.95,ESE,114,1.0,2.0,93,0.00,,,0.09,Wunderground v.1.15,2013-10-01 13:10:00,
2013-10-01 06:15:00,47.4,45.5,29.94,ESE,114,1.0,2.0,93,0.00,,,0.09,Wunderground v.1.15,2013-10-01 13:15:00,
2013-10-01 06:25:00,47.4,45.5,29.95,ESE,114,0.0,1.0,93,0.00,,,0.09,Wunderground v.1.15,2013-10-01 13:25:00,
2013-10-01 06:30:00,47.4,45.5,29.95,ESE,114,1.0,1.0,93,0.00,,,0.09,Wunderground v.1.15,2013-10-01 13:30:00,
2013-10-01 06:40:00,47.6,45.7,29.96,ESE,120,1.0,2.0,93,0.00,,,0.10,Wunderground v.1.15,2013-10-01 13:40:00,
2013-10-01 06:45:00,47.6,45.7,29.96,ESE,103,2.0,2.0,93,0.00,,,0.10,Wunderground v.1.15,2013-10-01 13:45:00,
2013-10-01 06:55:00,47.5,45.6,29.96,ESE,103,1.0,3.0,93,0.05,,,0.11,Wunderground v.1.15,2013-10-01 13:55:00,
2013-10-01 07:00:00,47.5,45.6,29.96,ESE,103,0.0,1.0,93,0.05,,,0.11,Wunderground v.1.15,2013-10-01 14:00:00,
2013-10-01 07:05:00,47.3,45.4,29.97,East,98,1.0,1.0,93,0.00,,,0.11,Wunderground v.1.15,2013-10-01 14:05:00,
2013-10-01 07:15:00,47.2,45.3,29.97,East,98,0.0,1.0,93,0.00,,,0.11,Wunderground v.1.15,2013-10-01 14:15:00,
2013-10-01 07:20:00,47.4,45.5,29.97,SE,136,1.0,4.0,93,0.00,,,0.11,Wunderground v.1.15,2013-10-01 14:20:00,
2013-10-01 07:25:00,47.6,46.0,29.97,SE,127,3.0,4.0,94,0.00,,,0.11,Wunderground v.1.15,2013-10-01 14:25:00,
2013-10-01 07:29:00,47.7,46.1,29.97,SE,136,3.0,5.0,94,0.00,,,0.11,Wunderground v.1.15,2013-10-01 14:29:00,
2013-10-01 07:35:00,47.8,46.2,29.97,SE,141,2.0,5.0,94,0.00,,,0.11,Wunderground v.1.15,2013-10-01 14:35:00,
2013-10-01 07:40:00,48.0,46.4,29.97,SE,130,4.0,4.0,94,0.00,,,0.11,Wunderground v.1.15,2013-10-01 14:40:00,
2013-10-01 07:45:00,48.2,46.6,29.97,SE,126,4.0,4.0,94,0.00,,,0.11,Wunderground v.1.15,2013-10-01 14:45:00,
2013-10-01 07:50:00,48.3,46.7,29.97,SSE,150,4.0,7.0,94,0.00,,,0.11,Wunderground v.1.15,2013-10-01 14:50:00,
2013-10-01 07:55:00,48.5,46.6,29.97,SE,143,6.0,7.0,93,0.00,,,0.11,Wunderground v.1.15,2013-10-01 14:55:00,
2013-10-01 08:00:00,48.3,46.4,29.97,ESE,107,4.0,4.0,93,0.00,,,0.11,Wunderground v.1.15,2013-10-01 15:00:00,
2013-10-01 08:05:00,48.2,46.3,29.97,SE,126,2.0,4.0,93,0.00,,,0.11,Wunderground v.1.15,2013-10-01 15:05:00,
2013-10-01 08:10:00,48.2,46.3,29.98,SSE,150,2.0,7.0,93,0.00,,,0.11,Wunderground v.1.15,2013-10-01 15:10:00,
2013-10-01 08:15:00,48.1,46.2,29.98,SSE,150,4.0,8.0,93,0.00,,,0.11,Wunderground v.1.15,2013-10-01 15:15:00,
2013-10-01 08:25:00,48.3,46.4,29.98,SE,126,3.0,6.0,93,0.00,,,0.11,Wunderground v.1.15,2013-10-01 15:25:00,
2013-10-01 08:30:00,48.3,46.4,29.97,ESE,119,2.0,2.0,93,0.00,,,0.11,Wunderground v.1.15,2013-10-01 15:30:00,
2013-10-01 08:40:00,48.3,46.4,29.98,East,84,1.0,1.0,93,0.00,,,0.11,Wunderground v.1.15,2013-10-01 15:40:00,
2013-10-01 08:45:00,48.2,46.3,29.98,East,84,1.0,1.0,93,0.00,,,0.11,Wunderground v.1.15,2013-10-01 15:45:00,
2013-10-01 08:54:00,48.2,46.0,29.99,SSW,211,2.0,7.0,92,0.00,,,0.12,Wunderground v.1.15,2013-10-01 15:54:00,
2013-10-01 09:00:00,48.9,45.5,29.99,SW,216,4.0,5.0,88,0.00,,,0.12,Wunderground v.1.15,2013-10-01 16:00:00,
2013-10-01 09:05:00,49.2,44.9,29.99,SSW,196,5.0,5.0,85,0.00,,,0.13,Wunderground v.1.15,2013-10-01 16:05:00,
2013-10-01 09:10:00,49.3,44.7,29.99,SW,230,5.0,5.0,84,0.00,,,0.13,Wunderground v.1.15,2013-10-01 16:10:00,
2013-10-01 09:15:00,49.4,44.5,29.99,WSW,238,5.0,5.0,83,0.09,,,0.14,Wunderground v.1.15,2013-10-01 16:15:00,
2013-10-01 09:20:00,49.5,44.6,29.99,South,182,4.0,5.0,83,0.11,,,0.15,Wunderground v.1.15,2013-10-01 16:20:00,
2013-10-01 09:25:00,49.5,44.6,30.00,South,173,4.0,7.0,83,0.23,,,0.17,Wunderground v.1.15,2013-10-01 16:25:00,
2013-10-01 09:30:00,49.5,44.9,30.00,South,186,6.0,6.0,84,0.17,,,0.18,Wunderground v.1.15,2013-10-01 16:30:00,
2013-10-01 09:40:00,49.4,44.8,30.00,SSW,197,5.0,5.0,84,0.07,,,0.19,Wunderground v.1.15,2013-10-01 16:40:00,
2013-10-01 09:50:00,49.4,45.4,30.01,WNW,295,7.0,7.0,86,0.30,,,0.23,Wunderground v.1.15,2013-10-01 16:50:00,
2013-10-01 09:55:00,48.5,44.8,30.02,NW,306,8.0,8.0,87,0.12,,,0.24,Wunderground v.1.15,2013-10-01 16:55:00,
2013-10-01 10:00:00,47.9,44.8,30.02,North,355,5.0,5.0,89,0.15,,,0.26,Wunderground v.1.15,2013-10-01 17:00:00,
2013-10-01 10:05:00,48.0,45.2,30.02,West,273,4.0,5.0,90,0.43,,,0.28,Wunderground v.1.15,2013-10-01 17:05:00,
2013-10-01 10:10:00,47.9,45.1,30.02,SW,236,4.0,4.0,90,0.29,,,0.31,Wunderground v.1.15,2013-10-01 17:10:00,
2013-10-01 10:15:00,47.9,44.8,30.02,SW,234,4.0,4.0,89,0.10,,,0.31,Wunderground v.1.15,2013-10-01 17:15:00,
2013-10-01 10:20:00,48.1,44.7,30.02,SW,234,3.0,3.0,88,0.05,,,0.31,Wunderground v.1.15,2013-10-01 17:20:00,
2013-10-01 10:25:00,47.9,44.8,30.02,SW,234,1.0,3.0,89,0.04,,,0.31,Wunderground v.1.15,2013-10-01 17:25:00,
2013-10-01 10:35:00,47.3,44.8,30.02,East,80,2.0,3.0,91,0.00,,,0.32,Wunderground v.1.15,2013-10-01 17:35:00,
2013-10-01 10:40:00,47.2,45.0,30.03,ENE,74,2.0,2.0,92,0.00,,,0.32,Wunderground v.1.15,2013-10-01 17:40:00,
2013-10-01 10:50:00,47.5,45.6,30.03,ENE,74,0.0,0.0,93,0.00,,,0.32,Wunderground v.1.15,2013-10-01 17:50:00,
2013-10-01 10:55:00,47.6,45.7,30.03,SSE,154,1.0,4.0,93,0.00,,,0.32,Wunderground v.1.15,2013-10-01 17:55:00,
2013-10-01 11:09:00,48.4,46.2,30.04,SE,146,2.0,2.0,92,0.00,,,0.32,Wunderground v.1.15,2013-10-01 18:09:00,
2013-10-01 11:15:00,48.4,46.5,30.05,SE,146,1.0,2.0,93,0.00,,,0.32,Wunderground v.1.15,2013-10-01 18:15:00,
2013-10-01 11:20:00,48.4,46.5,30.04,NE,44,1.0,1.0,93,0.00,,,0.32,Wunderground v.1.15,2013-10-01 18:20:00,
2013-10-01 11:24:00,48.4,46.5,30.04,NE,44,1.0,1.0,93,0.00,,,0.32,Wunderground v.1.15,2013-10-01 18:24:00,
2013-10-01 11:30:00,48.5,46.6,30.04,NE,44,0.0,0.0,93,0.00,,,0.33,Wunderground v.1.15,2013-10-01 18:30:00,
2013-10-01 11:35:00,48.6,46.7,30.05,NE,44,0.0,0.0,93,0.00,,,0.33,Wunderground v.1.15,2013-10-01 18:35:00,
2013-10-01 11:45:00,48.6,46.7,30.04,NE,51,0.0,0.0,93,0.00,,,0.33,Wunderground v.1.15,2013-10-01 18:45:00,
2013-10-01 11:50:00,48.8,46.9,30.04,NE,51,0.0,0.0,93,0.00,,,0.33,Wunderground v.1.15,2013-10-01 18:50:00,
2013-10-01 11:55:00,49.3,47.6,30.05,SE,126,0.0,3.0,94,0.00,,,0.33,Wunderground v.1.15,2013-10-01 18:55:00,
2013-10-01 12:05:00,49.6,47.4,30.05,SE,134,3.0,3.0,92,0.00,,,0.33,Wunderground v.1.15,2013-10-01 19:05:00,
2013-10-01 12:10:00,49.9,47.7,30.05,SE,138,3.0,3.0,92,0.00,,,0.33,Wunderground v.1.15,2013-10-01 19:10:00,
2013-10-01 12:20:00,50.4,47.9,30.05,SE,142,3.0,3.0,91,0.00,,,0.33,Wunderground v.1.15,2013-10-01 19:20:00,
2013-10-01 12:25:00,50.6,47.8,30.05,SE,142,2.0,3.0,90,0.00,,,0.33,Wunderground v.1.15,2013-10-01 19:25:00,
2013-10-01 12:35:00,51.2,48.1,30.05,SE,142,1.0,2.0,89,0.00,,,0.33,Wunderground v.1.15,2013-10-01 19:35:00,
2013-10-01 12:40:00,51.7,48.0,30.05,SE,142,1.0,2.0,87,0.00,,,0.33,Wunderground v.1.15,2013-10-01 19:40:00,
2013-10-01 12:45:00,52.1,48.3,30.05,SE,142,2.0,2.0,87,0.00,,,0.33,Wunderground v.1.15,2013-10-01 19:45:00,
2013-10-01 12:50:00,52.1,48.0,30.05,SE,142,2.0,2.0,86,0.00,,,0.33,Wunderground v.1.15,2013-10-01 19:50:00,
2013-10-01 12:55:00,52.4,48.6,30.05,SE,143,2.0,3.0,87,0.00,,,0.33,Wunderground v.1.15,2013-10-01 19:55:00,
2013-10-01 13:00:00,52.6,48.8,30.05,SE,143,2.0,2.0,87,0.00,,,0.33,Wunderground v.1.15,2013-10-01 20:00:00,
2013-10-01 13:05:00,53.2,49.4,30.06,NNE,26,2.0,6.0,87,0.00,,,0.34,Wunderground v.1.15,2013-10-01 20:05:00,
2013-10-01 13:10:00,53.1,49.3,30.06,NE,43,2.0,3.0,87,0.15,,,0.35,Wunderground v.1.15,2013-10-01 20:10:00,
2013-10-01 13:20:00,51.7,48.3,30.07,West,277,2.0,2.0,88,0.16,,,0.38,Wunderground v.1.15,2013-10-01 20:20:00,
2013-10-01 13:25:00,51.3,47.9,30.07,West,277,1.0,2.0,88,0.07,,,0.38,Wunderground v.1.15,2013-10-01 20:25:00,
2013-10-01 13:35:00,51.4,47.4,30.07,WNW,286,2.0,2.0,86,0.00,,,0.38,Wunderground v.1.15,2013-10-01 20:35:00,
2013-10-01 13:40:00,51.7,47.3,30.07,WNW,298,2.0,2.0,85,0.00,,,0.38,Wunderground v.1.15,2013-10-01 20:40:00,
2013-10-01 13:45:00,52.1,47.7,30.07,NW,308,2.0,2.0,85,0.00,,,0.38,Wunderground v.1.15,2013-10-01 20:45:00,
2013-10-01 13:50:00,52.8,48.7,30.07,NNW,329,2.0,2.0,86,0.00,,,0.38,Wunderground v.1.15,2013-10-01 20:50:00,
2013-10-01 13:55:00,53.3,49.2,30.07,NNW,337,1.0,3.0,86,0.00,,,0.38,Wunderground v.1.15,2013-10-01 20:55:00,
2013-10-01 14:05:00,53.7,49.0,30.07,NNW,328,3.0,5.0,84,0.00,,,0.38,Wunderground v.1.15,2013-10-01 21:05:00,
2013-10-01 14:10:00,53.8,49.1,30.08,NW,317,3.0,3.0,84,0.00,,,0.38,Wunderground v.1.15,2013-10-01 21:10:00,
2013-10-01 14:20:00,54.1,48.4,30.08,WNW,286,4.0,4.0,81,0.00,,,0.38,Wunderground v.1.15,2013-10-01 21:20:00,
2013-10-01 14:30:00,54.3,47.2,30.08,WNW,290,6.0,6.0,77,0.00,,,0.38,Wunderground v.1.15,2013-10-01 21:30:00,
2013-10-01 14:35:00,54.7,47.3,30.08,West,279,5.0,6.0,76,0.00,,,0.38,Wunderground v.1.15,2013-10-01 21:35:00,
2013-10-01 14:40:00,54.9,46.8,30.09,West,274,5.0,5.0,74,0.00,,,0.38,Wunderground v.1.15,2013-10-01 21:40:00,
2013-10-01 14:50:00,55.4,47.6,30.09,West,279,4.0,4.0,75,0.00,,,0.38,Wunderground v.1.15,2013-10-01 21:50:00,
2013-10-01 15:00:00,55.4,46.2,30.09,WSW,256,6.0,10.0,71,0.00,,,0.38,Wunderground v.1.15,2013-10-01 22:00:00,
2013-10-01 15:05:00,55.3,46.1,30.09,West,263,8.0,10.0,71,0.00,,,0.38,Wunderground v.1.15,2013-10-01 22:05:00,
2013-10-01 15:15:00,54.4,45.9,30.10,WSW,258,9.0,12.0,73,0.00,,,0.38,Wunderground v.1.15,2013-10-01 22:15:00,
2013-10-01 15:20:00,54.4,46.3,30.10,West,273,7.0,7.0,74,0.00,,,0.38,Wunderground v.1.15,2013-10-01 22:20:00,
2013-10-01 15:24:00,54.6,47.5,30.10,West,275,7.0,10.0,77,0.00,,,0.39,Wunderground v.1.15,2013-10-01 22:24:00,
2013-10-01 15:30:00,53.8,46.8,30.11,West,263,11.0,17.0,77,0.00,,,0.39,Wunderground v.1.15,2013-10-01 22:30:00,
2013-10-01 15:40:00,52.2,46.9,30.11,WSW,246,9.0,9.0,82,0.12,,,0.41,Wunderground v.1.15,2013-10-01 22:40:00,
2013-10-01 15:44:00,52.4,47.4,30.11,WSW,244,4.0,9.0,83,0.06,,,0.41,Wunderground v.1.15,2013-10-01 22:44:00,
2013-10-01 15:50:00,52.7,47.7,30.11,WNW,286,3.0,3.0,83,0.04,,,0.41,Wunderground v.1.15,2013-10-01 22:50:00,
2013-10-01 15:55:00,52.9,48.2,30.11,WNW,287,2.0,3.0,84,0.00,,,0.41,Wunderground v.1.15,2013-10-01 22:55:00,
2013-10-01 15:59:00,52.9,47.9,30.11,WNW,285,2.0,2.0,83,0.00,,,0.41,Wunderground v.1.15,2013-10-01 22:59:00,
2013-10-01 16:10:00,53.0,47.7,30.12,SW,234,2.0,2.0,82,0.00,,,0.41,Wunderground v.1.15,2013-10-01 23:10:00,
2013-10-01 16:14:00,53.1,47.4,30.12,SSW,209,2.0,2.0,81,0.00,,,0.41,Wunderground v.1.15,2013-10-01 23:14:00,
2013-10-01 16:20:00,53.4,47.7,30.12,South,171,2.0,3.0,81,0.00,,,0.41,Wunderground v.1.15,2013-10-01 23:20:00,
2013-10-01 16:25:00,53.8,47.4,30.11,SW,227,2.0,3.0,79,0.00,,,0.41,Wunderground v.1.15,2013-10-01 23:25:00,
2013-10-01 16:30:00,54.2,47.1,30.11,SSW,196,3.0,4.0,77,0.00,,,0.41,Wunderground v.1.15,2013-10-01 23:30:00,
2013-10-01 16:35:00,54.4,46.6,30.11,SSE,149,4.0,4.0,75,0.00,,,0.41,Wunderground v.1.15,2013-10-01 23:35:00,
2013-10-01 16:45:00,54.6,46.5,30.12,SSE,161,4.0,4.0,74,0.00,,,0.41,Wunderground v.1.15,2013-10-01 23:45:00,
2013-10-01 16:50:00,54.9,46.8,30.12,SSE,159,3.0,3.0,74,0.00,,,0.41,Wunderground v.1.15,2013-10-01 23:50:00,
2013-10-01 16:55:00,55.0,46.9,30.12,South,174,3.0,6.0,74,0.00,,,0.41,Wunderground v.1.15,2013-10-01 23:55:00,
2013-10-01 17:00:00,55.1,46.2,30.12,WSW,244,3.0,3.0,72,0.00,,,0.41,Wunderground v.1.15,2013-10-02 00:00:00,
2013-10-01 17:05:00,55.5,46.6,30.12,SSE,162,4.0,4.0,72,0.00,,,0.41,Wunderground v.1.15,2013-10-02 00:05:00,
2013-10-01 17:10:00,55.4,46.5,30.12,South,185,3.0,3.0,72,0.00,,,0.41,Wunderground v.1.15,2013-10-02 00:10:00,
2013-10-01 17:14:00,55.2,46.7,30.12,SW,222,2.0,3.0,73,0.00,,,0.41,Wunderground v.1.15,2013-10-02 00:14:00,
2013-10-01 17:20:00,55.0,46.5,30.12,SSW,209,3.0,6.0,73,0.00,,,0.41,Wunderground v.1.15,2013-10-02 00:20:00,
2013-10-01 17:30:00,54.9,46.8,30.13,SW,226,4.0,4.0,74,0.00,,,0.41,Wunderground v.1.15,2013-10-02 00:30:00,
2013-10-01 17:40:00,54.7,46.9,30.13,WSW,257,3.0,3.0,75,0.00,,,0.41,Wunderground v.1.15,2013-10-02 00:40:00,
2013-10-01 17:50:00,53.9,48.2,30.13,West,281,5.0,6.0,81,0.00,,,0.42,Wunderground v.1.15,2013-10-02 00:50:00,
2013-10-01 18:00:00,52.4,48.0,30.13,WSW,252,5.0,5.0,85,0.00,,,0.42,Wunderground v.1.15,2013-10-02 01:00:00,
2013-10-01 18:04:00,52.2,47.8,30.13,WSW,239,4.0,5.0,85,0.00,,,0.42,Wunderground v.1.15,2013-10-02 01:04:00,
2013-10-01 18:10:00,52.1,48.0,30.13,WSW,239,2.0,2.0,86,0.00,,,0.42,Wunderground v.1.15,2013-10-02 01:10:00,
2013-10-01 18:15:00,52.0,47.9,30.13,WSW,239,1.0,2.0,86,0.00,,,0.42,Wunderground v.1.15,2013-10-02 01:15:00,
2013-10-01 18:20:00,52.1,48.0,30.13,WSW,239,1.0,1.0,86,0.00,,,0.42,Wunderground v.1.15,2013-10-02 01:20:00,
2013-10-01 18:25:00,52.2,47.8,30.13,SSE,163,1.0,5.0,85,0.00,,,0.42,Wunderground v.1.15,2013-10-02 01:25:00,
2013-10-01 18:30:00,52.5,47.5,30.13,West,261,3.0,5.0,83,0.00,,,0.43,Wunderground v.1.15,2013-10-02 01:30:00,
2013-10-01 18:35:00,52.7,47.4,30.13,SW,220,5.0,5.0,82,0.00,,,0.43,Wunderground v.1.15,2013-10-02 01:35:00,
2013-10-01 18:40:00,52.9,47.2,30.13,WSW,248,3.0,5.0,81,0.00,,,0.43,Wunderground v.1.15,2013-10-02 01:40:00,
2013-10-01 18:45:00,53.0,47.3,30.13,SSE,168,3.0,6.0,81,0.00,,,0.43,Wunderground v.1.15,2013-10-02 01:45:00,
2013-10-01 18:50:00,53.1,47.4,30.13,South,176,3.0,4.0,81,0.00,,,0.43,Wunderground v.1.15,2013-10-02 01:50:00,
2013-10-01 18:55:00,53.2,46.9,30.14,South,179,4.0,4.0,79,0.00,,,0.43,Wunderground v.1.15,2013-10-02 01:55:00,
2013-10-01 19:00:00,53.1,47.4,30.14,South,179,4.0,4.0,81,0.00,,,0.43,Wunderground v.1.15,2013-10-02 02:00:00,
2013-10-01 19:05:00,53.0,47.3,30.13,SSE,166,3.0,4.0,81,0.00,,,0.43,Wunderground v.1.15,2013-10-02 02:05:00,
2013-10-01 19:10:00,52.5,47.5,30.14,SSE,159,2.0,2.0,83,0.00,,,0.43,Wunderground v.1.15,2013-10-02 02:10:00,
2013-10-01 19:15:00,52.0,47.6,30.14,SSE,157,1.0,4.0,85,0.00,,,0.43,Wunderground v.1.15,2013-10-02 02:15:00,
2013-10-01 19:20:00,51.5,47.5,30.14,SSE,157,1.0,1.0,86,0.00,,,0.43,Wunderground v.1.15,2013-10-02 02:20:00,
2013-10-01 19:25:00,51.1,47.4,30.14,SSE,157,1.0,1.0,87,0.00,,,0.43,Wunderground v.1.15,2013-10-02 02:25:00,
2013-10-01 19:35:00,50.7,47.3,30.15,SSE,157,0.0,0.0,88,0.00,,,0.43,Wunderground v.1.15,2013-10-02 02:35:00,
2013-10-01 19:40:00,50.6,47.2,30.15,SSE,151,0.0,2.0,88,0.00,,,0.43,Wunderground v.1.15,2013-10-02 02:40:00,
2013-10-01 19:50:00,50.6,47.2,30.15,SSE,151,0.0,0.0,88,0.00,,,0.43,Wunderground v.1.15,2013-10-02 02:50:00,
2013-10-01 19:55:00,50.5,47.1,30.15,SSE,151,0.0,0.0,88,0.00,,,0.43,Wunderground v.1.15,2013-10-02 02:55:00,
2013-10-01 20:00:00,50.4,47.0,30.15,SSE,151,0.0,0.0,88,0.00,,,0.43,Wunderground v.1.15,2013-10-02 03:00:00,
2013-10-01 20:05:00,50.5,47.1,30.15,SSE,151,0.0,2.0,88,0.00,,,0.43,Wunderground v.1.15,2013-10-02 03:05:00,
2013-10-01 20:09:00,51.1,47.7,30.15,SSE,150,2.0,6.0,88,0.00,,,0.43,Wunderground v.1.15,2013-10-02 03:09:00,
2013-10-01 20:15:00,51.7,47.6,30.15,SE,139,4.0,6.0,86,0.00,,,0.43,Wunderground v.1.15,2013-10-02 03:15:00,
2013-10-01 20:20:00,51.4,47.0,30.16,SE,139,2.0,2.0,85,0.00,,,0.43,Wunderground v.1.15,2013-10-02 03:20:00,
2013-10-01 20:24:00,50.9,46.6,30.16,SE,131,0.0,2.0,85,0.00,,,0.43,Wunderground v.1.15,2013-10-02 03:24:00,
2013-10-01 20:30:00,50.4,46.4,30.15,SE,131,0.0,0.0,86,0.00,,,0.43,Wunderground v.1.15,2013-10-02 03:30:00,
2013-10-01 20:40:00,49.9,46.2,30.15,East,97,1.0,2.0,87,0.00,,,0.43,Wunderground v.1.15,2013-10-02 03:40:00,
2013-10-01 20:50:00,49.8,46.1,30.15,East,86,2.0,2.0,87,0.00,,,0.43,Wunderground v.1.15,2013-10-02 03:50:00,
2013-10-01 20:55:00,49.5,45.8,30.16,ESE,111,1.0,2.0,87,0.00,,,0.43,Wunderground v.1.15,2013-10-02 03:55:00,
2013-10-01 21:00:00,49.8,46.1,30.16,SE,135,1.0,1.0,87,0.00,,,0.43,Wunderground v.1.15,2013-10-02 04:00:00,
2013-10-01 21:05:00,50.2,46.8,30.16,SE,129,2.0,2.0,88,0.00,,,0.43,Wunderground v.1.15,2013-10-02 04:05:00,
2013-10-01 21:10:00,50.2,46.2,30.16,ESE,108,1.0,1.0,86,0.00,,,0.43,Wunderground v.1.15,2013-10-02 04:10:00,
2013-10-01 21:15:00,50.1,46.1,30.17,ESE,108,1.0,1.0,86,0.00,,,0.43,Wunderground v.1.15,2013-10-02 04:15:00,
2013-10-01 21:20:00,49.9,45.9,30.16,ESE,103,1.0,2.0,86,0.00,,,0.43,Wunderground v.1.15,2013-10-02 04:20:00,
2013-10-01 21:25:00,50.0,46.0,30.16,ESE,103,1.0,2.0,86,0.00,,,0.43,Wunderground v.1.15,2013-10-02 04:25:00,
2013-10-01 21:30:00,49.9,45.9,30.17,ESE,103,1.0,1.0,86,0.00,,,0.43,Wunderground v.1.15,2013-10-02 04:30:00,
2013-10-01 21:35:00,49.6,45.9,30.17,East,99,1.0,1.0,87,0.00,,,0.43,Wunderground v.1.15,2013-10-02 04:35:00,
2013-10-01 21:40:00,49.4,46.0,30.17,East,99,1.0,1.0,88,0.00,,,0.43,Wunderground v.1.15,2013-10-02 04:40:00,
2013-10-01 21:45:00,49.3,46.2,30.17,East,90,1.0,1.0,89,0.00,,,0.43,Wunderground v.1.15,2013-10-02 04:45:00,
2013-10-01 21:50:00,49.2,46.1,30.17,East,90,1.0,1.0,89,0.00,,,0.43,Wunderground v.1.15,2013-10-02 04:50:00,
2013-10-01 21:54:00,49.3,46.2,30.17,East,90,1.0,3.0,89,0.00,,,0.43,Wunderground v.1.15,2013-10-02 04:54:00,
2013-10-01 22:00:00,49.3,46.2,30.17,ENE,70,1.0,2.0,89,0.00,,,0.43,Wunderground v.1.15,2013-10-02 05:00:00,
2013-10-01 22:05:00,49.4,46.6,30.17,ENE,70,1.0,2.0,90,0.00,,,0.43,Wunderground v.1.15,2013-10-02 05:05:00,
2013-10-01 22:10:00,49.4,46.6,30.17,ENE,70,1.0,1.0,90,0.00,,,0.43,Wunderground v.1.15,2013-10-02 05:10:00,
2013-10-01 22:15:00,49.4,46.6,30.17,ENE,70,0.0,1.0,90,0.00,,,0.43,Wunderground v.1.15,2013-10-02 05:15:00,
2013-10-01 22:20:00,49.4,46.6,30.17,SE,130,0.0,3.0,90,0.00,,,0.43,Wunderground v.1.15,2013-10-02 05:20:00,
2013-10-01 22:25:00,50.2,47.4,30.17,SSE,156,3.0,4.0,90,0.00,,,0.43,Wunderground v.1.15,2013-10-02 05:25:00,
2013-10-01 22:30:00,50.8,47.7,30.17,SE,144,5.0,6.0,89,0.00,,,0.43,Wunderground v.1.15,2013-10-02 05:30:00,
2013-10-01 22:34:00,51.1,47.1,30.17,ESE,102,5.0,6.0,86,0.00,,,0.43,Wunderground v.1.15,2013-10-02 05:34:00,
2013-10-01 22:40:00,51.0,46.6,30.17,SE,136,3.0,7.0,85,0.00,,,0.43,Wunderground v.1.15,2013-10-02 05:40:00,
2013-10-01 22:45:00,51.3,47.3,30.17,SE,132,4.0,7.0,86,0.00,,,0.43,Wunderground v.1.15,2013-10-02 05:45:00,
2013-10-01 22:49:00,51.2,46.8,30.17,SE,144,4.0,5.0,85,0.00,,,0.43,Wunderground v.1.15,2013-10-02 05:49:00,
2013-10-01 22:55:00,51.6,47.5,30.17,SE,132,4.0,5.0,86,0.00,,,0.43,Wunderground v.1.15,2013-10-02 05:55:00,
2013-10-01 23:00:00,51.9,47.8,30.17,SSE,149,6.0,6.0,86,0.00,,,0.43,Wunderground v.1.15,2013-10-02 06:00:00,
2013-10-01 23:04:00,51.9,47.5,30.17,SE,126,5.0,6.0,85,0.00,,,0.43,Wunderground v.1.15,2013-10-02 06:04:00,
2013-10-01 23:10:00,51.4,47.0,30.17,ESE,120,2.0,2.0,85,0.00,,,0.43,Wunderground v.1.15,2013-10-02 06:10:00,
2013-10-01 23:20:00,50.4,46.7,30.17,ESE,119,1.0,2.0,87,0.00,,,0.43,Wunderground v.1.15,2013-10-02 06:20:00,
2013-10-01 23:25:00,50.4,47.0,30.17,ESE,119,1.0,2.0,88,0.00,,,0.43,Wunderground v.1.15,2013-10-02 06:25:00,
2013-10-01 23:30:00,50.3,46.9,30.17,ESE,119,1.0,1.0,88,0.00,,,0.43,Wunderground v.1.15,2013-10-02 06:30:00,
2013-10-01 23:35:00,50.1,46.7,30.17,ESE,119,1.0,1.0,88,0.00,,,0.43,Wunderground v.1.15,2013-10-02 06:35:00,
2013-10-01 23:40:00,49.8,46.7,30.17,ESE,117,1.0,1.0,89,0.00,,,0.43,Wunderground v.1.15,2013-10-02 06:40:00,
2013-10-01 23:45:00,49.7,46.6,30.16,ESE,117,1.0,1.0,89,0.00,,,0.43,Wunderground v.1.15,2013-10-02 06:45:00,
2013-10-01 23:50:00,49.5,46.4,30.16,ESE,117,1.0,1.0,89,0.00,,,0.43,Wunderground v.1.15,2013-10-02 06:50:00,
2013-10-01 23:54:00,49.5,46.7,30.16,ESE,116,1.0,1.0,90,0.00,,,0.43,Wunderground v.1.15,2013-10-02 06:54:00,